Time;durP1;ratioP1;P1;durP2;ratioP2;P2;SDS_P1;SDS_P2;PMS_P1;PMS_P2;Temp;Humidity;BMP_temperature;BMP_pressure;BME280_temperature;BME280_humidity;BME280_pressure;Samples;Min_cycle;Max_cycle;Signal;HPM_P1;HPM_P2
2022/08/20 00:00:57;;;;;;;2.60;1.13;;;19.50;99.90;;;;;;20727034;28;20521;-82
2022/08/20 00:10:59;;;;;;;2.70;1.65;;;19.60;99.90;;;;;;20723989;28;20107;-82
2022/08/20 00:21:00;;;;;;;3.35;1.35;;;19.50;99.90;;;;;;20727671;28;20366;-82
2022/08/20 00:31:06;;;;;;;2.88;1.20;;;19.50;99.90;;;;;;20724025;28;20053;-82
2022/08/20 00:41:13;;;;;;;3.00;1.10;;;19.30;99.90;;;;;;20735902;28;20554;-82
2022/08/20 00:51:26;;;;;;;3.33;1.35;;;19.30;99.90;;;;;;20710158;28;20115;-82
2022/08/20 01:01:27;;;;;;;2.33;0.85;;;19.20;99.90;;;;;;20764333;28;20079;-83
2022/08/20 01:11:32;;;;;;;2.78;1.30;;;19.10;99.90;;;;;;20744971;28;20045;-83
2022/08/20 01:21:33;;;;;;;3.30;0.93;;;19.00;99.90;;;;;;20746443;28;20603;-84
2022/08/20 01:31:37;;;;;;;1.83;0.70;;;19.00;99.90;;;;;;20746470;28;20068;-84
2022/08/20 01:41:59;;;;;;;2.15;0.88;;;18.90;99.90;;;;;;20753151;28;20050;-85
2022/08/20 01:52:06;;;;;;;1.60;0.70;;;18.90;99.90;;;;;;20784966;28;20736;-84
2022/08/20 02:02:08;;;;;;;5.90;1.60;;;18.80;99.90;;;;;;20763020;28;20388;-84
2022/08/20 02:12:12;;;;;;;2.40;0.75;;;18.80;99.90;;;;;;20756135;28;20072;-84
2022/08/20 02:22:33;;;;;;;3.60;0.80;;;18.70;99.90;;;;;;20761948;28;20041;-84
2022/08/20 02:32:34;;;;;;;1.35;0.55;;;18.70;99.90;;;;;;20758663;28;20057;-84
2022/08/20 02:42:38;;;;;;;2.58;0.90;;;18.60;99.90;;;;;;20757815;28;20547;-84
2022/08/20 02:52:39;;;;;;;1.80;0.50;;;18.50;99.90;;;;;;20757538;28;21048;-84
2022/08/20 03:02:40;;;;;;;2.97;0.70;;;18.30;99.90;;;;;;20766191;28;20045;-84
2022/08/20 03:12:41;;;;;;;1.92;0.60;;;18.20;99.90;;;;;;20763205;28;20064;-84
2022/08/20 03:22:43;;;;;;;2.03;0.57;;;18.10;99.90;;;;;;20766445;28;20041;-85
2022/08/20 03:32:44;;;;;;;1.75;0.47;;;17.90;99.90;;;;;;20770178;28;20076;-84
2022/08/20 03:42:45;;;;;;;2.47;0.95;;;17.80;99.90;;;;;;20776779;28;20121;-84
2022/08/20 03:52:46;;;;;;;1.33;0.82;;;17.60;99.90;;;;;;20777415;28;20048;-84
2022/08/20 04:02:47;;;;;;;2.65;0.70;;;17.60;99.90;;;;;;20782441;28;20046;-84
2022/08/20 04:12:48;;;;;;;1.85;0.70;;;17.60;99.90;;;;;;20783388;28;20083;-84
2022/08/20 04:22:53;;;;;;;5.90;1.42;;;17.40;99.90;;;;;;20772637;28;20034;-84
2022/08/20 04:32:55;;;;;;;3.08;0.82;;;17.40;99.90;;;;;;20772769;28;20072;-84
2022/08/20 04:42:57;;;;;;;1.60;0.50;;;17.20;99.90;;;;;;20777984;28;20103;-84
2022/08/20 04:52:58;;;;;;;1.42;0.57;;;17.10;99.90;;;;;;20771810;28;21605;-84
2022/08/20 05:02:59;;;;;;;3.63;1.50;;;17.10;99.90;;;;;;20757772;28;20033;-84
2022/08/20 05:13:01;;;;;;;2.25;0.70;;;17.10;99.90;;;;;;20776424;28;20052;-84
2022/08/20 05:23:02;;;;;;;4.95;0.80;;;16.90;99.90;;;;;;20762887;28;20041;-84
2022/08/20 05:33:05;;;;;;;1.73;0.88;;;16.80;99.90;;;;;;20776983;28;20594;-84
2022/08/20 05:43:07;;;;;;;5.25;1.88;;;16.80;99.90;;;;;;20780562;28;20076;-84
2022/08/20 05:53:09;;;;;;;2.65;1.17;;;16.80;99.90;;;;;;20754900;28;20064;-84
2022/08/20 06:13:29;;;;;;;2.75;1.42;;;17.70;99.90;;;;;;20776538;28;20049;-85
2022/08/20 06:23:30;;;;;;;3.38;1.80;;;17.70;99.90;;;;;;20759219;28;20038;-86
2022/08/20 06:33:31;;;;;;;2.63;1.00;;;17.80;99.90;;;;;;20726863;28;20061;-87
2022/08/20 06:43:32;;;;;;;2.90;0.73;;;17.90;99.90;;;;;;20740395;28;20046;-85
2022/08/20 06:53:33;;;;;;;1.85;0.52;;;18.00;99.90;;;;;;20746611;28;20490;-85
2022/08/20 07:03:36;;;;;;;1.73;1.05;;;18.30;99.90;;;;;;20770837;28;20069;-85
2022/08/20 07:13:37;;;;;;;1.58;0.60;;;18.40;99.90;;;;;;20756811;28;20033;-87
2022/08/20 07:23:40;;;;;;;1.90;0.70;;;18.60;99.90;;;;;;20754749;28;20064;-86
2022/08/20 07:33:42;;;;;;;2.88;0.40;;;18.80;99.90;;;;;;20757231;28;20705;-86
2022/08/20 07:43:45;;;;;;;1.08;0.38;;;18.90;99.90;;;;;;20759344;28;20049;-90
2022/08/20 07:53:48;;;;;;;1.05;0.45;;;19.20;99.90;;;;;;20728188;28;20529;-85
2022/08/20 08:03:49;;;;;;;1.05;0.45;;;19.40;99.90;;;;;;20761501;28;20064;-85
2022/08/20 08:13:50;;;;;;;1.92;0.30;;;19.60;99.90;;;;;;20779332;28;20041;-87
2022/08/20 08:23:52;;;;;;;2.95;0.93;;;19.80;99.90;;;;;;20763335;28;20038;-87
2022/08/20 08:33:54;;;;;;;1.50;0.70;;;20.00;99.90;;;;;;20768728;28;20052;-86
2022/08/20 08:44:08;;;;;;;1.30;0.52;;;20.40;99.90;;;;;;20764883;28;20038;-86
2022/08/20 08:54:15;;;;;;;4.50;1.58;;;20.60;99.90;;;;;;20737028;28;20041;-87
2022/08/20 09:04:20;;;;;;;1.10;0.60;;;21.00;99.90;;;;;;20747848;28;20440;-87
2022/08/20 09:14:25;;;;;;;1.38;0.45;;;21.50;99.90;;;;;;20752661;28;20718;-87
2022/08/20 09:24:26;;;;;;;1.23;0.50;;;21.80;99.90;;;;;;20746087;28;20731;-87
2022/08/20 09:34:27;;;;;;;1.13;0.45;;;21.80;99.90;;;;;;20749901;28;20396;-88
2022/08/20 09:44:28;;;;;;;1.33;0.77;;;22.10;99.90;;;;;;20745235;28;20440;-87
2022/08/20 09:54:32;;;;;;;0.95;0.40;;;22.50;99.90;;;;;;20756582;28;20439;-85
2022/08/20 10:04:33;;;;;;;1.00;0.40;;;22.80;99.90;;;;;;20736387;28;20144;-86
2022/08/20 10:14:44;;;;;;;1.77;0.70;;;23.10;99.90;;;;;;20778017;28;20054;-86
2022/08/20 10:24:45;;;;;;;1.98;0.30;;;23.30;99.90;;;;;;20757814;28;20033;-86
2022/08/20 10:34:49;;;;;;;1.10;0.40;;;23.60;99.90;;;;;;20756073;28;20053;-85
2022/08/20 10:44:50;;;;;;;1.48;0.70;;;24.20;99.90;;;;;;20755826;28;20036;-85
2022/08/20 10:54:52;;;;;;;0.82;0.40;;;23.80;99.90;;;;;;20765041;28;20049;-86
2022/08/20 11:04:54;;;;;;;3.38;1.05;;;23.80;99.90;;;;;;20765341;28;20061;-87
2022/08/20 11:14:55;;;;;;;2.83;0.95;;;23.90;99.90;;;;;;20762227;28;20107;-85
2022/08/20 11:24:56;;;;;;;2.85;0.50;;;24.40;99.90;;;;;;20753604;28;20100;-84
2022/08/20 11:34:57;;;;;;;1.63;0.50;;;24.70;99.90;;;;;;20728418;28;20033;-85
2022/08/20 11:44:58;;;;;;;1.45;0.50;;;25.10;98.00;;;;;;20684560;28;20042;-85
2022/08/20 11:55:00;;;;;;;2.60;0.80;;;24.30;99.90;;;;;;20659104;28;20042;-84
2022/08/20 12:05:01;;;;;;;1.58;0.52;;;23.80;99.90;;;;;;20669579;28;20309;-85
2022/08/20 12:15:03;;;;;;;0.77;0.38;;;23.60;99.90;;;;;;20676160;28;20046;-85
2022/08/20 12:25:06;;;;;;;5.15;0.60;;;24.10;99.90;;;;;;20705337;28;20513;-85
2022/08/20 12:35:08;;;;;;;2.55;0.82;;;25.00;98.70;;;;;;20682586;28;20046;-83
2022/08/20 12:45:10;;;;;;;2.28;0.70;;;24.60;99.70;;;;;;20791632;28;20033;-82
2022/08/20 12:55:14;;;;;;;3.08;0.60;;;23.80;99.90;;;;;;20835649;28;20137;-85
2022/08/20 13:05:16;;;;;;;2.13;0.65;;;23.40;99.90;;;;;;20834489;28;20092;-84
2022/08/20 13:15:18;;;;;;;1.60;0.65;;;24.30;99.90;;;;;;20826408;28;20041;-83
2022/08/20 13:25:20;;;;;;;1.45;0.50;;;25.00;99.50;;;;;;20844395;28;20041;-82
2022/08/20 13:35:24;;;;;;;1.80;0.70;;;25.70;98.70;;;;;;20837426;28;20543;-84
2022/08/20 13:45:25;;;;;;;1.38;0.30;;;27.20;98.80;;;;;;20837042;28;20045;-84
2022/08/20 13:55:27;;;;;;;1.27;0.50;;;27.50;98.50;;;;;;20851330;28;20961;-84
2022/08/20 14:05:30;;;;;;;3.22;0.55;;;25.00;99.90;;;;;;20847116;28;20037;-84
2022/08/20 14:15:31;;;;;;;1.52;0.60;;;23.70;99.90;;;;;;20839934;28;20524;-84
2022/08/20 14:25:33;;;;;;;1.15;0.40;;;23.90;99.90;;;;;;20839569;28;20531;-84
2022/08/20 14:35:35;;;;;;;1.15;0.40;;;24.40;99.90;;;;;;20857969;28;20044;-84
2022/08/20 14:45:36;;;;;;;1.20;0.50;;;23.90;99.90;;;;;;20840507;28;20037;-83
2022/08/20 14:55:37;;;;;;;1.10;0.30;;;23.90;99.90;;;;;;20850009;28;20041;-82
2022/08/20 15:05:39;;;;;;;1.02;0.30;;;23.30;99.90;;;;;;20839117;28;20046;-83
2022/08/20 15:15:40;;;;;;;1.08;0.45;;;23.70;99.90;;;;;;20850688;28;20053;-83
2022/08/20 15:25:41;;;;;;;0.98;0.30;;;23.90;99.90;;;;;;20849431;28;20098;-83
2022/08/20 15:35:42;;;;;;;1.65;0.95;;;23.60;99.90;;;;;;20830784;28;20550;-83
2022/08/20 15:45:43;;;;;;;2.47;0.80;;;23.60;99.90;;;;;;20837389;28;20764;-83
2022/08/20 15:56:06;;;;;;;1.90;0.95;;;23.50;99.90;;;;;;20852501;28;20041;-83
2022/08/20 16:06:17;;;;;;;0.47;0.28;;;22.90;99.90;;;;;;20831155;28;20745;-84
2022/08/20 16:16:30;;;;;;;1.13;0.30;;;22.70;99.90;;;;;;20846608;28;20068;-83
2022/08/20 16:26:50;;;;;;;0.55;0.20;;;22.40;99.90;;;;;;20835996;28;21585;-83
2022/08/20 16:37:10;;;;;;;23.63;1.45;;;22.60;99.90;;;;;;20844058;28;20087;-83
2022/08/20 16:47:23;;;;;;;4.63;1.58;;;22.30;99.90;;;;;;20855953;28;20087;-83
2022/08/20 16:57:27;;;;;;;3.28;1.35;;;22.10;99.90;;;;;;20854662;28;21637;-83
2022/08/20 17:07:41;;;;;;;1.85;0.60;;;22.00;99.90;;;;;;20846309;28;20617;-83
2022/08/20 17:17:42;;;;;;;1.25;0.50;;;21.90;99.90;;;;;;20841274;28;20098;-83
2022/08/20 17:27:45;;;;;;;0.75;0.30;;;21.60;99.90;;;;;;20838361;28;20029;-83
2022/08/20 17:37:50;;;;;;;5.78;1.45;;;21.40;99.90;;;;;;20824903;28;20107;-83
2022/08/20 17:47:55;;;;;;;1.40;0.30;;;21.30;99.90;;;;;;20821469;28;20538;-83
2022/08/20 17:58:01;;;;;;;0.70;0.20;;;21.20;99.90;;;;;;20860214;28;20038;-83
2022/08/20 18:08:33;;;;;;;1.02;0.40;;;21.00;99.90;;;;;;20837307;28;20891;-83
2022/08/20 18:18:46;;;;;;;1.05;0.35;;;20.70;99.90;;;;;;20825290;28;20592;-83
2022/08/20 18:28:54;;;;;;;1.98;0.32;;;20.70;99.90;;;;;;20834637;28;20029;-83
2022/08/20 18:39:01;;;;;;;1.08;0.65;;;20.40;99.90;;;;;;20825121;28;20064;-83
2022/08/20 18:49:05;;;;;;;1.27;0.70;;;20.20;99.90;;;;;;20815781;28;20484;-83
2022/08/20 18:59:18;;;;;;;0.85;0.20;;;19.90;99.90;;;;;;20816250;28;20041;-83
2022/08/20 19:09:30;;;;;;;1.42;0.30;;;19.60;99.90;;;;;;20824194;28;20033;-83
2022/08/20 19:19:32;;;;;;;1.40;0.52;;;19.20;99.90;;;;;;20815737;28;20561;-83
2022/08/20 19:29:41;;;;;;;0.80;0.50;;;19.00;99.90;;;;;;20821353;28;20032;-83
2022/08/20 19:39:42;;;;;;;0.82;0.50;;;18.70;99.90;;;;;;20795777;28;20332;-83
2022/08/20 19:49:55;;;;;;;2.05;1.10;;;18.50;99.90;;;;;;20758467;28;20034;-83
2022/08/20 20:00:00;;;;;;;1.02;0.50;;;18.30;99.90;;;;;;20759615;28;20034;-83
2022/08/20 20:10:05;;;;;;;1.40;1.00;;;18.10;99.90;;;;;;20760851;28;20041;-83
2022/08/20 20:20:31;;;;;;;1.25;0.50;;;18.00;99.90;;;;;;20771680;28;20064;-83
2022/08/20 20:30:33;;;;;;;1.95;0.85;;;17.70;99.90;;;;;;20765874;28;20665;-83
2022/08/20 20:40:51;;;;;;;1.33;0.73;;;17.60;99.90;;;;;;20797498;28;20781;-83
2022/08/20 20:50:53;;;;;;;4.25;1.67;;;17.40;99.90;;;;;;20828968;28;20040;-83
2022/08/20 21:00:55;;;;;;;3.03;1.05;;;17.30;99.90;;;;;;20845314;28;20033;-83
2022/08/20 21:10:56;;;;;;;1.50;0.50;;;17.10;99.90;;;;;;20828840;28;20052;-83
2022/08/20 21:20:57;;;;;;;1.75;1.00;;;17.00;99.90;;;;;;20842136;28;20087;-83
2022/08/20 21:30:59;;;;;;;1.90;0.73;;;16.80;99.90;;;;;;20846613;28;20041;-83
2022/08/20 21:41:01;;;;;;;3.45;0.82;;;16.70;99.90;;;;;;20858412;28;20170;-83
2022/08/20 21:51:02;;;;;;;2.42;0.68;;;16.70;99.90;;;;;;20831948;28;20531;-83
2022/08/20 22:01:04;;;;;;;2.88;0.88;;;16.60;99.90;;;;;;20815905;28;20160;-83
2022/08/20 22:11:07;;;;;;;2.78;0.90;;;16.50;99.90;;;;;;20819597;28;20017;-82
2022/08/20 22:21:12;;;;;;;1.52;0.68;;;16.50;99.90;;;;;;20818513;28;20080;-82
2022/08/20 22:31:17;;;;;;;1.90;0.90;;;16.30;99.90;;;;;;20814023;28;20110;-83
2022/08/20 22:41:19;;;;;;;2.17;0.95;;;16.30;99.90;;;;;;20818906;28;20091;-83
2022/08/20 22:51:25;;;;;;;1.83;0.70;;;16.20;99.90;;;;;;20803647;28;20033;-83
2022/08/20 23:01:27;;;;;;;1.42;0.70;;;16.20;99.90;;;;;;20809197;28;20481;-83
2022/08/20 23:11:28;;;;;;;1.60;0.70;;;16.20;99.90;;;;;;20829643;28;20648;-83
2022/08/20 23:21:29;;;;;;;1.52;0.68;;;16.20;99.90;;;;;;20814554;28;20048;-83
2022/08/20 23:31:30;;;;;;;2.25;0.70;;;16.30;99.90;;;;;;20843047;28;20036;-83
2022/08/20 23:41:31;;;;;;;1.90;0.85;;;16.40;99.90;;;;;;20822626;28;20099;-83
2022/08/20 23:51:32;;;;;;;7.75;0.90;;;16.30;99.90;;;;;;20819216;28;20038;-83
